createdAt,value
2018-08-19T00:00:13.863Z,0.00
2018-08-19T00:01:13.770Z,0.00
2018-08-19T00:02:13.696Z,0.00
2018-08-19T00:03:13.609Z,0.00
2018-08-19T00:04:13.532Z,0.00
2018-08-19T00:05:13.461Z,0.00
2018-08-19T00:06:13.371Z,0.00
2018-08-19T00:07:13.295Z,0.00
2018-08-19T00:08:13.234Z,0.00
2018-08-19T00:09:13.134Z,0.00
2018-08-19T00:10:13.059Z,0.00
2018-08-19T00:11:12.982Z,0.00
2018-08-19T00:12:12.895Z,0.00
2018-08-19T00:13:12.836Z,0.00
2018-08-19T00:14:12.745Z,0.00
2018-08-19T00:15:12.659Z,0.00
2018-08-19T00:16:12.584Z,0.00
2018-08-19T00:17:12.509Z,0.00
2018-08-19T00:18:12.421Z,0.00
2018-08-19T00:19:12.345Z,0.00
2018-08-19T00:20:12.259Z,0.00
2018-08-19T00:21:12.184Z,0.00
2018-08-19T00:22:12.110Z,0.00
2018-08-19T00:23:12.021Z,0.00
2018-08-19T00:24:11.960Z,0.00
2018-08-19T00:25:11.871Z,0.00
2018-08-19T00:26:11.785Z,0.00
2018-08-19T00:27:11.710Z,0.00
2018-08-19T00:28:11.635Z,0.00
2018-08-19T00:29:11.548Z,0.00
2018-08-19T00:30:11.472Z,0.00
2018-08-19T00:31:11.385Z,0.00
2018-08-19T00:32:11.310Z,0.00
2018-08-19T00:33:11.236Z,0.00
2018-08-19T00:34:11.148Z,0.00
2018-08-19T00:35:11.072Z,0.00
2018-08-19T00:36:11.011Z,0.00
2018-08-19T00:37:10.911Z,0.00
2018-08-19T00:38:10.841Z,0.00
2018-08-19T00:39:10.749Z,0.00
2018-08-19T00:40:10.673Z,0.00
2018-08-19T00:41:10.599Z,0.00
2018-08-19T00:42:10.512Z,0.00
2018-08-19T00:43:10.439Z,0.00
2018-08-19T00:44:10.362Z,0.00
2018-08-19T00:45:10.274Z,0.00
2018-08-19T00:46:10.200Z,0.00
2018-08-19T00:47:10.112Z,0.00
2018-08-19T00:48:10.038Z,0.00
2018-08-19T00:49:09.962Z,0.00
2018-08-19T00:50:09.875Z,0.00
2018-08-19T00:51:09.801Z,0.00
2018-08-19T00:52:09.738Z,0.00
2018-08-19T00:53:09.639Z,0.00
2018-08-19T00:54:09.563Z,0.00
2018-08-19T00:55:09.485Z,0.00
2018-08-19T00:56:09.400Z,0.00
2018-08-19T00:57:09.328Z,0.00
2018-08-19T00:58:09.239Z,0.00
2018-08-19T00:59:09.163Z,0.00
2018-08-19T01:00:09.088Z,0.00
2018-08-19T01:01:09.002Z,0.00
2018-08-19T01:02:08.925Z,0.00
2018-08-19T01:03:08.840Z,0.00
2018-08-19T01:04:08.764Z,0.00
2018-08-19T01:05:08.689Z,0.00
2018-08-19T01:06:08.602Z,0.00
2018-08-19T01:07:08.539Z,0.00
2018-08-19T01:08:08.451Z,0.00
2018-08-19T01:09:08.367Z,0.00
2018-08-19T01:10:08.291Z,0.00
2018-08-19T01:11:08.202Z,0.00
2018-08-19T01:12:08.142Z,0.00
2018-08-19T01:13:08.053Z,0.00
2018-08-19T01:14:07.967Z,0.00
2018-08-19T01:15:07.890Z,0.00
2018-08-19T01:16:07.803Z,0.00
2018-08-19T01:17:07.744Z,0.00
2018-08-19T01:18:07.652Z,0.00
2018-08-19T01:19:07.567Z,0.00
2018-08-19T01:20:07.493Z,0.00
2018-08-19T01:21:07.405Z,0.00
2018-08-19T01:22:07.341Z,0.00
2018-08-19T01:23:07.253Z,0.00
2018-08-19T01:24:07.167Z,0.00
2018-08-19T01:25:07.094Z,0.00
2018-08-19T01:26:07.019Z,0.00
2018-08-19T01:27:06.942Z,0.00
2018-08-19T01:28:06.854Z,0.00
2018-08-19T01:29:06.767Z,0.00
2018-08-19T01:30:06.694Z,0.00
2018-08-19T01:31:06.605Z,0.00
2018-08-19T01:32:06.541Z,0.00
2018-08-19T01:33:06.454Z,0.00
2018-08-19T01:34:06.375Z,0.00
2018-08-19T01:35:06.293Z,0.00
2018-08-19T01:36:06.206Z,0.00
2018-08-19T01:37:06.142Z,0.00
2018-08-19T01:38:06.058Z,0.00
2018-08-19T01:39:05.969Z,0.00
2018-08-19T01:40:05.893Z,0.00
2018-08-19T01:41:05.819Z,0.00
2018-08-19T01:42:05.730Z,0.00
2018-08-19T01:43:05.658Z,0.00
2018-08-19T01:44:05.568Z,0.00
2018-08-19T01:45:05.496Z,0.00
2018-08-19T01:46:05.422Z,0.00
2018-08-19T01:47:05.330Z,0.00
2018-08-19T01:48:05.255Z,0.00
2018-08-19T01:49:05.169Z,0.00
2018-08-19T01:50:05.095Z,0.00
2018-08-19T01:51:05.008Z,0.00
2018-08-19T01:52:04.931Z,0.00
2018-08-19T01:53:04.856Z,0.00
2018-08-19T01:54:04.770Z,0.00
2018-08-19T01:55:04.694Z,0.00
2018-08-19T01:56:04.620Z,0.00
2018-08-19T01:57:04.532Z,0.00
2018-08-19T01:58:04.457Z,0.00
2018-08-19T01:59:04.371Z,0.00
2018-08-19T02:00:04.296Z,0.00
2018-08-19T02:01:04.225Z,0.00
2018-08-19T02:02:04.133Z,0.00
2018-08-19T02:03:04.059Z,0.00
2018-08-19T02:04:03.971Z,0.00
2018-08-19T02:05:03.897Z,0.00
2018-08-19T02:06:03.824Z,0.00
2018-08-19T02:07:03.733Z,0.00
2018-08-19T02:08:03.659Z,0.00
2018-08-19T02:09:03.584Z,0.00
2018-08-19T02:10:03.544Z,0.00
2018-08-19T02:11:03.409Z,0.00
2018-08-19T02:12:03.336Z,0.00
2018-08-19T02:13:03.258Z,0.00
2018-08-19T02:14:03.172Z,0.00
2018-08-19T02:15:03.097Z,0.00
2018-08-19T02:16:03.010Z,0.00
2018-08-19T02:17:02.934Z,0.00
2018-08-19T02:18:02.877Z,0.00
2018-08-19T02:19:02.772Z,0.00
2018-08-19T02:20:02.702Z,0.00
2018-08-19T02:21:02.611Z,0.00
2018-08-19T02:22:02.534Z,0.00
2018-08-19T02:23:02.473Z,0.00
2018-08-19T02:24:02.373Z,0.00
2018-08-19T02:25:02.300Z,0.00
2018-08-19T02:26:02.211Z,0.00
2018-08-19T02:27:02.135Z,0.00
2018-08-19T02:28:02.073Z,0.00
2018-08-19T02:29:01.973Z,0.00
2018-08-19T02:30:01.900Z,0.00
2018-08-19T02:31:01.813Z,0.00
2018-08-19T02:32:01.736Z,0.00
2018-08-19T02:33:01.661Z,0.00
2018-08-19T02:34:01.575Z,0.00
2018-08-19T02:35:01.499Z,0.00
2018-08-19T02:36:01.411Z,0.00
2018-08-19T02:37:01.336Z,0.00
2018-08-19T02:38:01.262Z,0.00
2018-08-19T02:39:01.175Z,0.00
2018-08-19T02:40:01.100Z,0.00
2018-08-19T02:41:01.013Z,0.00
2018-08-19T02:42:00.937Z,0.00
2018-08-19T02:43:00.850Z,0.00
2018-08-19T02:44:00.775Z,0.00
2018-08-19T02:45:00.688Z,0.00
2018-08-19T02:46:00.612Z,0.00
2018-08-19T02:47:00.537Z,0.00
2018-08-19T02:48:00.450Z,0.00
2018-08-19T02:49:00.376Z,0.00
2018-08-19T02:50:00.300Z,0.00
2018-08-19T02:51:00.213Z,0.00
2018-08-19T02:52:00.137Z,0.00
2018-08-19T02:53:00.051Z,0.00
2018-08-19T02:53:59.977Z,0.00
2018-08-19T02:54:59.888Z,0.00
2018-08-19T02:55:59.812Z,0.00
2018-08-19T02:56:59.729Z,0.00
2018-08-19T02:57:59.652Z,0.00
2018-08-19T02:58:59.564Z,0.00
2018-08-19T02:59:59.488Z,0.00
2018-08-19T03:00:59.415Z,0.00
2018-08-19T03:01:59.328Z,0.00
2018-08-19T03:02:59.252Z,0.00
2018-08-19T03:03:59.164Z,0.00
2018-08-19T03:04:59.089Z,0.00
2018-08-19T03:05:59.014Z,0.00
2018-08-19T03:06:58.927Z,0.00
2018-08-19T03:07:58.852Z,0.00
2018-08-19T03:08:58.765Z,0.00
2018-08-19T03:09:58.690Z,0.00
2018-08-19T03:10:58.606Z,0.00
2018-08-19T03:11:58.528Z,0.00
2018-08-19T03:12:58.452Z,0.00
2018-08-19T03:13:58.366Z,0.00
2018-08-19T03:14:58.300Z,0.00
2018-08-19T03:15:58.203Z,0.00
2018-08-19T03:16:58.142Z,0.00
2018-08-19T03:17:58.041Z,0.00
2018-08-19T03:18:57.965Z,0.00
2018-08-19T03:19:57.883Z,0.00
2018-08-19T03:20:57.804Z,0.00
2018-08-19T03:21:57.729Z,0.00
2018-08-19T03:22:57.641Z,0.00
2018-08-19T03:23:57.567Z,0.00
2018-08-19T03:24:57.479Z,0.00
2018-08-19T03:25:57.405Z,4.00
2018-08-19T03:26:57.317Z,4.00
2018-08-19T03:27:57.242Z,4.00
2018-08-19T03:28:57.185Z,0.00
2018-08-19T03:29:57.080Z,4.00
2018-08-19T03:30:57.005Z,4.00
2018-08-19T03:31:56.917Z,8.00
2018-08-19T03:32:56.842Z,4.00
2018-08-19T03:33:56.755Z,8.00
2018-08-19T03:34:56.680Z,8.00
2018-08-19T03:35:56.593Z,8.00
2018-08-19T03:36:56.517Z,12.00
2018-08-19T03:37:56.464Z,12.00
2018-08-19T03:38:56.356Z,16.00
2018-08-19T03:39:56.282Z,16.00
2018-08-19T03:40:56.193Z,24.00
2018-08-19T03:41:56.118Z,24.00
2018-08-19T03:42:56.043Z,28.00
2018-08-19T03:43:55.956Z,28.00
2018-08-19T03:44:55.882Z,36.00
2018-08-19T03:45:55.793Z,40.00
2018-08-19T03:46:55.720Z,44.00
2018-08-19T03:47:55.632Z,48.00
2018-08-19T03:48:55.559Z,56.00
2018-08-19T03:49:55.482Z,56.00
2018-08-19T03:50:55.397Z,68.00
2018-08-19T03:51:55.308Z,72.00
2018-08-19T03:52:55.247Z,84.00
2018-08-19T03:53:55.158Z,88.00
2018-08-19T03:54:55.069Z,104.00
2018-08-19T03:55:54.995Z,112.00
2018-08-19T03:56:54.908Z,124.00
2018-08-19T03:57:54.837Z,140.00
2018-08-19T03:58:54.746Z,152.00
2018-08-19T03:59:54.670Z,168.00
2018-08-19T04:00:54.595Z,188.00
2018-08-19T04:01:54.508Z,200.00
2018-08-19T04:02:54.433Z,220.00
2018-08-19T04:03:54.345Z,236.00
2018-08-19T04:04:54.270Z,252.00
2018-08-19T04:05:54.184Z,268.00
2018-08-19T04:06:54.109Z,284.00
2018-08-19T04:07:54.021Z,308.00
2018-08-19T04:08:53.946Z,328.00
2018-08-19T04:09:53.870Z,340.00
2018-08-19T04:10:53.783Z,356.00
2018-08-19T04:11:53.710Z,380.00
2018-08-19T04:12:53.621Z,400.00
2018-08-19T04:13:53.547Z,424.00
2018-08-19T04:14:53.460Z,448.00
2018-08-19T04:15:53.384Z,472.00
2018-08-19T04:16:53.299Z,496.00
2018-08-19T04:17:53.222Z,524.00
2018-08-19T04:18:53.205Z,548.00
2018-08-19T04:19:53.060Z,576.00
2018-08-19T04:20:52.986Z,608.00
2018-08-19T04:21:52.898Z,640.00
2018-08-19T04:22:52.823Z,676.00
2018-08-19T04:23:52.736Z,708.00
2018-08-19T04:24:52.661Z,732.00
2018-08-19T04:25:52.587Z,756.00
2018-08-19T04:26:52.510Z,784.00
2018-08-19T04:27:52.422Z,816.00
2018-08-19T04:28:52.340Z,844.00
2018-08-19T04:29:52.261Z,876.00
2018-08-19T04:30:52.173Z,904.00
2018-08-19T04:31:52.111Z,944.00
2018-08-19T04:32:52.023Z,1000.00
2018-08-19T04:33:51.938Z,1064.00
2018-08-19T04:34:51.861Z,1140.00
2018-08-19T04:35:51.774Z,1212.00
2018-08-19T04:36:51.699Z,1268.00
2018-08-19T04:37:51.623Z,1304.00
2018-08-19T04:38:51.538Z,1316.00
2018-08-19T04:39:51.463Z,1304.00
2018-08-19T04:40:51.374Z,1312.00
2018-08-19T04:41:51.301Z,1404.00
2018-08-19T04:42:51.212Z,1528.00
2018-08-19T04:43:51.142Z,1644.00
2018-08-19T04:44:51.062Z,1672.00
2018-08-19T04:45:50.975Z,1660.00
2018-08-19T04:46:50.901Z,1604.00
2018-08-19T04:47:50.813Z,1616.00
2018-08-19T04:48:50.738Z,1648.00
2018-08-19T04:49:50.652Z,1664.00
2018-08-19T04:50:50.578Z,1700.00
2018-08-19T04:51:50.500Z,1752.00
2018-08-19T04:52:50.413Z,1836.00
2018-08-19T04:53:50.342Z,1872.00
2018-08-19T04:54:50.251Z,1880.00
2018-08-19T04:55:50.177Z,1940.00
2018-08-19T04:56:50.101Z,1972.00
2018-08-19T04:57:50.014Z,1952.00
2018-08-19T04:58:49.939Z,1868.00
2018-08-19T04:59:49.857Z,1872.00
2018-08-19T05:00:49.777Z,1944.00
2018-08-19T05:01:49.708Z,1984.00
2018-08-19T05:02:49.616Z,1972.00
2018-08-19T05:03:49.540Z,1948.00
2018-08-19T05:04:49.454Z,2060.00
2018-08-19T05:05:49.376Z,2156.00
2018-08-19T05:06:49.302Z,2112.00
2018-08-19T05:07:49.247Z,2076.00
2018-08-19T05:08:49.140Z,2048.00
2018-08-19T05:09:49.065Z,2060.00
2018-08-19T05:10:49.015Z,2308.00
2018-08-19T05:11:48.902Z,2532.00
2018-08-19T05:12:48.816Z,2824.00
2018-08-19T05:13:48.741Z,3000.00
2018-08-19T05:14:48.668Z,3064.00
2018-08-19T05:15:48.579Z,2900.00
2018-08-19T05:16:48.503Z,2752.00
2018-08-19T05:17:48.429Z,2644.00
2018-08-19T05:18:48.342Z,2656.00
2018-08-19T05:19:48.268Z,2708.00
2018-08-19T05:20:48.193Z,2784.00
2018-08-19T05:21:48.104Z,2652.00
2018-08-19T05:22:48.029Z,2888.00
2018-08-19T05:23:47.942Z,3028.00
2018-08-19T05:24:47.868Z,3204.00
2018-08-19T05:25:47.793Z,3012.00
2018-08-19T05:26:47.706Z,2832.00
2018-08-19T05:27:47.630Z,2860.00
2018-08-19T05:28:47.555Z,2812.00
2018-08-19T05:29:47.469Z,2640.00
2018-08-19T05:30:47.392Z,2432.00
2018-08-19T05:31:47.318Z,2284.00
2018-08-19T05:32:47.230Z,2212.00
2018-08-19T05:33:47.156Z,2192.00
2018-08-19T05:34:47.081Z,2200.00
2018-08-19T05:35:46.995Z,2208.00
2018-08-19T05:36:46.919Z,2232.00
2018-08-19T05:37:46.843Z,2276.00
2018-08-19T05:38:46.756Z,2352.00
2018-08-19T05:39:46.682Z,2428.00
2018-08-19T05:40:46.605Z,2544.00
2018-08-19T05:41:46.531Z,2680.00
2018-08-19T05:42:46.444Z,2804.00
2018-08-19T05:43:46.370Z,2868.00
2018-08-19T05:44:46.295Z,2864.00
2018-08-19T05:45:46.208Z,2792.00
2018-08-19T05:46:46.132Z,2720.00
2018-08-19T05:47:46.057Z,2680.00
2018-08-19T05:48:45.970Z,2640.00
2018-08-19T05:49:45.896Z,2624.00
2018-08-19T05:50:45.820Z,2648.00
2018-08-19T05:51:45.733Z,2708.00
2018-08-19T05:52:45.657Z,2792.00
2018-08-19T05:53:45.582Z,2888.00
2018-08-19T05:54:45.496Z,2988.00
2018-08-19T05:55:45.430Z,3044.00
2018-08-19T05:56:45.346Z,3076.00
2018-08-19T05:57:45.271Z,3096.00
2018-08-19T05:58:45.183Z,3132.00
2018-08-19T05:59:45.121Z,3188.00
2018-08-19T06:00:45.033Z,3236.00
2018-08-19T06:01:44.947Z,3320.00
2018-08-19T06:02:44.873Z,3440.00
2018-08-19T06:03:44.797Z,3620.00
2018-08-19T06:04:44.726Z,3792.00
2018-08-19T06:05:44.633Z,3912.00
2018-08-19T06:06:44.560Z,3980.00
2018-08-19T06:07:44.585Z,3980.00
2018-08-19T06:08:44.398Z,3888.00
2018-08-19T06:09:44.322Z,3820.00
2018-08-19T06:10:44.248Z,3796.00
2018-08-19T06:11:44.173Z,3784.00
2018-08-19T06:12:44.084Z,3756.00
2018-08-19T06:13:44.010Z,3708.00
2018-08-19T06:14:43.934Z,3660.00
2018-08-19T06:15:43.859Z,3616.00
2018-08-19T06:16:43.774Z,3584.00
2018-08-19T06:17:43.704Z,3560.00
2018-08-19T06:18:43.624Z,3568.00
2018-08-19T06:19:43.535Z,3592.00
2018-08-19T06:20:43.473Z,3616.00
2018-08-19T06:21:43.385Z,3628.00
2018-08-19T06:22:43.310Z,3628.00
2018-08-19T06:23:43.223Z,3628.00
2018-08-19T06:24:43.214Z,3640.00
2018-08-19T06:25:43.074Z,3644.00
2018-08-19T06:26:43.000Z,3652.00
2018-08-19T06:27:42.914Z,3640.00
2018-08-19T06:28:42.836Z,3628.00
2018-08-19T06:29:42.762Z,3616.00
2018-08-19T06:30:42.686Z,3608.00
2018-08-19T06:31:42.601Z,3628.00
2018-08-19T06:32:42.524Z,3660.00
2018-08-19T06:33:42.449Z,3680.00
2018-08-19T06:34:42.395Z,3712.00
2018-08-19T06:35:42.300Z,3728.00
2018-08-19T06:36:42.214Z,3748.00
2018-08-19T06:37:42.137Z,3760.00
2018-08-19T06:38:42.061Z,3764.00
2018-08-19T06:39:42.000Z,3772.00
2018-08-19T06:40:41.900Z,3772.00
2018-08-19T06:41:41.825Z,3776.00
2018-08-19T06:42:41.750Z,3776.00
2018-08-19T06:43:41.676Z,3792.00
2018-08-19T06:44:41.592Z,3800.00
2018-08-19T06:45:41.512Z,3816.00
2018-08-19T06:46:41.437Z,3828.00
2018-08-19T06:47:41.362Z,3828.00
2018-08-19T06:48:41.288Z,3824.00
2018-08-19T06:49:41.201Z,3828.00
2018-08-19T06:50:41.127Z,3832.00
2018-08-19T06:51:41.053Z,3836.00
2018-08-19T06:52:40.983Z,3832.00
2018-08-19T06:53:40.902Z,3860.00
2018-08-19T06:54:40.814Z,3868.00
2018-08-19T06:55:40.740Z,3856.00
2018-08-19T06:56:40.663Z,3884.00
2018-08-19T06:57:40.591Z,3896.00
2018-08-19T06:58:40.514Z,3916.00
2018-08-19T06:59:40.428Z,3940.00
2018-08-19T07:00:40.353Z,3968.00
2018-08-19T07:01:40.279Z,3980.00
2018-08-19T07:02:40.204Z,4012.00
2018-08-19T07:03:40.148Z,4064.00
2018-08-19T07:04:40.053Z,4124.00
2018-08-19T07:05:39.965Z,4188.00
2018-08-19T07:06:39.891Z,4240.00
2018-08-19T07:07:39.815Z,4332.00
2018-08-19T07:08:39.740Z,4384.00
2018-08-19T07:09:39.665Z,4432.00
2018-08-19T07:10:39.579Z,4484.00
2018-08-19T07:11:39.504Z,4556.00
2018-08-19T07:12:39.470Z,4628.00
2018-08-19T07:13:39.358Z,4708.00
2018-08-19T07:14:39.279Z,4784.00
2018-08-19T07:15:39.294Z,4884.00
2018-08-19T07:16:39.129Z,4956.00
2018-08-19T07:17:39.042Z,5032.00
2018-08-19T07:18:38.984Z,5124.00
2018-08-19T07:19:38.891Z,5244.00
2018-08-19T07:20:38.817Z,5480.00
2018-08-19T07:21:38.741Z,5688.00
2018-08-19T07:22:38.680Z,5524.00
2018-08-19T07:23:38.655Z,5460.00
2018-08-19T07:24:38.517Z,5452.00
2018-08-19T07:25:38.443Z,5472.00
2018-08-19T07:26:38.356Z,5548.00
2018-08-19T07:27:38.283Z,5580.00
2018-08-19T07:28:38.206Z,5560.00
2018-08-19T07:29:38.163Z,5680.00
2018-08-19T07:30:38.056Z,5700.00
2018-08-19T07:31:37.982Z,5628.00
2018-08-19T07:32:37.907Z,5788.00
2018-08-19T07:33:37.832Z,5920.00
2018-08-19T07:34:37.757Z,6764.00
2018-08-19T07:35:37.681Z,6928.00
2018-08-19T07:36:37.607Z,7400.00
2018-08-19T07:37:37.522Z,7740.00
2018-08-19T07:38:37.445Z,7920.00
2018-08-19T07:39:37.369Z,7908.00
2018-08-19T07:40:37.294Z,7852.00
2018-08-19T07:41:37.219Z,7800.00
2018-08-19T07:42:37.143Z,7748.00
2018-08-19T07:43:37.069Z,7708.00
2018-08-19T07:44:36.998Z,7624.00
2018-08-19T07:45:36.933Z,7544.00
2018-08-19T07:46:36.859Z,7396.00
2018-08-19T07:47:36.783Z,7296.00
2018-08-19T07:48:36.709Z,7268.00
2018-08-19T07:49:36.634Z,7244.00
2018-08-19T07:50:36.578Z,7208.00
2018-08-19T07:51:36.509Z,7184.00
2018-08-19T07:52:36.409Z,7164.00
2018-08-19T07:53:36.346Z,7164.00
2018-08-19T07:54:36.271Z,7172.00
2018-08-19T07:55:36.202Z,7168.00
2018-08-19T07:56:36.122Z,7212.00
2018-08-19T07:57:36.059Z,7248.00
2018-08-19T07:58:35.984Z,7296.00
2018-08-19T07:59:35.910Z,7320.00
2018-08-19T08:00:35.846Z,7356.00
2018-08-19T08:01:35.773Z,7376.00
2018-08-19T08:02:35.714Z,7380.00
2018-08-19T08:03:35.762Z,7400.00
2018-08-19T08:04:35.563Z,7444.00
2018-08-19T08:05:35.496Z,7444.00
2018-08-19T08:06:35.422Z,7460.00
2018-08-19T08:07:35.360Z,7464.00
2018-08-19T08:08:35.285Z,7484.00
2018-08-19T08:09:35.225Z,7480.00
2018-08-19T08:10:35.152Z,7516.00
2018-08-19T08:11:35.085Z,7588.00
2018-08-19T08:12:35.025Z,7644.00
2018-08-19T08:13:34.963Z,7760.00
2018-08-19T08:14:34.879Z,8096.00
2018-08-19T08:15:34.812Z,9964.00
2018-08-19T08:16:34.736Z,12324.00
2018-08-19T08:17:34.673Z,14192.00
2018-08-19T08:18:34.597Z,15372.00
2018-08-19T08:19:34.536Z,15904.00
2018-08-19T08:20:34.461Z,18272.00
2018-08-19T08:21:34.503Z,18880.00
2018-08-19T08:22:34.327Z,17568.00
2018-08-19T08:23:34.262Z,17152.00
2018-08-19T08:24:34.200Z,15728.00
2018-08-19T08:25:34.124Z,15616.00
2018-08-19T08:26:34.062Z,16296.00
2018-08-19T08:27:33.999Z,16372.00
2018-08-19T08:28:33.938Z,15724.00
2018-08-19T08:29:33.863Z,15780.00
2018-08-19T08:30:33.790Z,16856.00
2018-08-19T08:31:33.725Z,17152.00
2018-08-19T08:32:33.663Z,16476.00
2018-08-19T08:33:33.587Z,16508.00
2018-08-19T08:34:33.525Z,16048.00
2018-08-19T08:35:33.463Z,14200.00
2018-08-19T08:36:33.388Z,12392.00
2018-08-19T08:37:33.326Z,11780.00
2018-08-19T08:38:33.253Z,12252.00
2018-08-19T08:39:33.189Z,12268.00
2018-08-19T08:40:33.138Z,12180.00
2018-08-19T08:41:33.051Z,12076.00
2018-08-19T08:42:32.989Z,11960.00
2018-08-19T08:43:32.925Z,11780.00
2018-08-19T08:44:32.873Z,11784.00
2018-08-19T08:45:32.788Z,11676.00
2018-08-19T08:46:32.716Z,11544.00
2018-08-19T08:47:32.750Z,11360.00
2018-08-19T08:48:32.589Z,11064.00
2018-08-19T08:49:32.516Z,11264.00
2018-08-19T08:50:32.451Z,10632.00
2018-08-19T08:51:32.393Z,9708.00
2018-08-19T08:52:32.318Z,8820.00
2018-08-19T08:53:32.252Z,8076.00
2018-08-19T08:54:32.190Z,7956.00
2018-08-19T08:55:32.127Z,7956.00
2018-08-19T08:56:32.066Z,7992.00
2018-08-19T08:57:31.990Z,8024.00
2018-08-19T08:58:31.927Z,8024.00
2018-08-19T08:59:31.866Z,8108.00
2018-08-19T09:00:31.795Z,8308.00
2018-08-19T09:01:31.729Z,8596.00
2018-08-19T09:02:31.666Z,8816.00
2018-08-19T09:03:31.590Z,8996.00
2018-08-19T09:04:31.528Z,9156.00
2018-08-19T09:05:31.454Z,9240.00
2018-08-19T09:06:31.391Z,9348.00
2018-08-19T09:07:31.331Z,9368.00
2018-08-19T09:08:31.266Z,9444.00
2018-08-19T09:09:31.192Z,9492.00
2018-08-19T09:10:31.129Z,9552.00
2018-08-19T09:11:31.067Z,9636.00
2018-08-19T09:12:30.995Z,9716.00
2018-08-19T09:13:30.929Z,9860.00
2018-08-19T09:14:30.868Z,10024.00
2018-08-19T09:15:30.806Z,10180.00
2018-08-19T09:16:30.731Z,10288.00
2018-08-19T09:17:30.668Z,10280.00
2018-08-19T09:18:30.606Z,10396.00
2018-08-19T09:19:30.544Z,10388.00
2018-08-19T09:20:30.480Z,10588.00
2018-08-19T09:21:30.405Z,10660.00
2018-08-19T09:22:30.343Z,10676.00
2018-08-19T09:23:30.352Z,10740.00
2018-08-19T09:24:30.219Z,10808.00
2018-08-19T09:25:30.155Z,11192.00
2018-08-19T09:26:30.081Z,11496.00
2018-08-19T09:27:30.019Z,11488.00
2018-08-19T09:28:29.958Z,11620.00
2018-08-19T09:29:29.893Z,11808.00
2018-08-19T09:30:29.820Z,11876.00
2018-08-19T09:31:29.757Z,12140.00
2018-08-19T09:32:29.696Z,12384.00
2018-08-19T09:33:29.632Z,12564.00
2018-08-19T09:34:29.570Z,13228.00
2018-08-19T09:35:29.496Z,13488.00
2018-08-19T09:36:29.431Z,12924.00
2018-08-19T09:37:29.370Z,12392.00
2018-08-19T09:38:29.306Z,6440.00
2018-08-19T09:39:29.245Z,6496.00
2018-08-19T09:40:29.171Z,5472.00
2018-08-19T09:41:29.108Z,5444.00
2018-08-19T09:42:29.046Z,5528.00
2018-08-19T09:43:28.983Z,5520.00
2018-08-19T09:44:28.907Z,5724.00
2018-08-19T09:45:28.846Z,6876.00
2018-08-19T09:46:28.782Z,6424.00
2018-08-19T09:47:28.732Z,5980.00
2018-08-19T09:48:28.647Z,5876.00
2018-08-19T09:49:28.584Z,7496.00
2018-08-19T09:50:28.509Z,5688.00
2018-08-19T09:51:28.448Z,5488.00
2018-08-19T09:52:28.384Z,5324.00
2018-08-19T09:53:28.309Z,5224.00
2018-08-19T09:54:28.247Z,5188.00
2018-08-19T09:55:28.184Z,5204.00
2018-08-19T09:56:28.108Z,5208.00
2018-08-19T09:57:28.063Z,5184.00
2018-08-19T09:58:27.974Z,5180.00
2018-08-19T09:59:27.909Z,5128.00
2018-08-19T10:00:27.834Z,5088.00
2018-08-19T10:01:27.808Z,5092.00
2018-08-19T10:02:27.698Z,5068.00
2018-08-19T10:03:27.664Z,5068.00
2018-08-19T10:04:27.560Z,5056.00
2018-08-19T10:05:27.497Z,5088.00
2018-08-19T10:06:27.427Z,5140.00
2018-08-19T10:07:27.412Z,5176.00
2018-08-19T10:08:27.300Z,5232.00
2018-08-19T10:09:27.228Z,5272.00
2018-08-19T10:10:27.148Z,5308.00
2018-08-19T10:11:27.099Z,5328.00
2018-08-19T10:12:27.011Z,5340.00
2018-08-19T10:13:26.950Z,5332.00
2018-08-19T10:14:26.875Z,5356.00
2018-08-19T10:15:26.799Z,5364.00
2018-08-19T10:16:26.736Z,5440.00
2018-08-19T10:17:26.660Z,5460.00
2018-08-19T10:18:26.599Z,5512.00
2018-08-19T10:19:26.524Z,5556.00
2018-08-19T10:20:26.461Z,5588.00
2018-08-19T10:21:26.387Z,5556.00
2018-08-19T10:22:26.324Z,5548.00
2018-08-19T10:23:26.254Z,5572.00
2018-08-19T10:24:26.187Z,5656.00
2018-08-19T10:25:26.125Z,5772.00
2018-08-19T10:26:26.063Z,5744.00
2018-08-19T10:27:25.962Z,5768.00
2018-08-19T10:28:25.902Z,5772.00
2018-08-19T10:29:25.825Z,5796.00
2018-08-19T10:30:25.761Z,5800.00
2018-08-19T10:31:25.706Z,5784.00
2018-08-19T10:32:25.612Z,5828.00
2018-08-19T10:33:25.550Z,5872.00
2018-08-19T10:34:25.476Z,5808.00
2018-08-19T10:35:25.412Z,5816.00
2018-08-19T10:36:25.338Z,5800.00
2018-08-19T10:37:25.276Z,5764.00
2018-08-19T10:38:25.207Z,5792.00
2018-08-19T10:39:25.131Z,6048.00
2018-08-19T10:40:25.052Z,6772.00
2018-08-19T10:41:24.988Z,8500.00
2018-08-19T10:42:24.915Z,6792.00
2018-08-19T10:43:24.851Z,5784.00
2018-08-19T10:44:24.777Z,5812.00
2018-08-19T10:45:24.703Z,5860.00
2018-08-19T10:46:24.639Z,5872.00
2018-08-19T10:47:24.564Z,5904.00
2018-08-19T10:48:24.510Z,7724.00
2018-08-19T10:49:24.428Z,5956.00
2018-08-19T10:50:24.353Z,6128.00
2018-08-19T10:51:24.292Z,6408.00
2018-08-19T10:52:24.214Z,6948.00
2018-08-19T10:53:24.162Z,14384.00
2018-08-19T10:54:24.079Z,17696.00
2018-08-19T10:55:24.014Z,19744.00
2018-08-19T10:56:23.940Z,20288.00
2018-08-19T10:57:23.867Z,20640.00
2018-08-19T10:58:23.812Z,22112.00
2018-08-19T10:59:23.728Z,25280.00
2018-08-19T11:00:23.666Z,30528.00
2018-08-19T11:01:23.591Z,36096.00
2018-08-19T11:02:23.529Z,41056.00
2018-08-19T11:03:23.465Z,39904.00
2018-08-19T11:04:23.391Z,31584.00
2018-08-19T11:05:23.329Z,12752.00
2018-08-19T11:06:23.255Z,16352.00
2018-08-19T11:07:23.191Z,14436.00
2018-08-19T11:08:23.133Z,19392.00
2018-08-19T11:09:23.056Z,17184.00
2018-08-19T11:10:22.992Z,42944.00
2018-08-19T11:11:22.930Z,57216.00
2018-08-19T11:12:22.855Z,62048.00
2018-08-19T11:13:22.801Z,59232.00
2018-08-19T11:14:22.737Z,57312.00
2018-08-19T11:15:22.655Z,57312.00
2018-08-19T11:16:22.592Z,55488.00
2018-08-19T11:17:22.531Z,54592.00
2018-08-19T11:18:22.455Z,52928.00
2018-08-19T11:19:22.392Z,52288.00
2018-08-19T11:20:22.330Z,53280.00
2018-08-19T11:21:22.267Z,55072.00
2018-08-19T11:22:22.194Z,55456.00
2018-08-19T11:23:22.131Z,55584.00
2018-08-19T11:24:22.082Z,52800.00
2018-08-19T11:25:22.011Z,52480.00
2018-08-19T11:26:21.956Z,54336.00
2018-08-19T11:27:21.881Z,54400.00
2018-08-19T11:28:21.821Z,51904.00
2018-08-19T11:29:21.745Z,51264.00
2018-08-19T11:30:21.682Z,52288.00
2018-08-19T11:31:21.646Z,51840.00
2018-08-19T11:32:21.557Z,51008.00
2018-08-19T11:33:21.494Z,50048.00
2018-08-19T11:34:21.433Z,48800.00
2018-08-19T11:35:21.371Z,48480.00
2018-08-19T11:36:21.313Z,49024.00
2018-08-19T11:37:21.245Z,48160.00
2018-08-19T11:38:21.170Z,47200.00
2018-08-19T11:39:21.108Z,45888.00
2018-08-19T11:40:21.045Z,44512.00
2018-08-19T11:41:20.983Z,43968.00
2018-08-19T11:42:20.920Z,43328.00
2018-08-19T11:43:20.910Z,42208.00
2018-08-19T11:44:20.795Z,41440.00
2018-08-19T11:45:20.734Z,40416.00
2018-08-19T11:46:20.670Z,39808.00
2018-08-19T11:47:20.609Z,39168.00
2018-08-19T11:48:20.546Z,38688.00
2018-08-19T11:49:20.472Z,37888.00
2018-08-19T11:50:20.410Z,36128.00
2018-08-19T11:51:20.346Z,35168.00
2018-08-19T11:52:20.284Z,34592.00
2018-08-19T11:53:20.221Z,34176.00
2018-08-19T11:54:20.160Z,33504.00
2018-08-19T11:55:20.170Z,32640.00
2018-08-19T11:56:20.035Z,31840.00
2018-08-19T11:57:19.972Z,31680.00
2018-08-19T11:58:19.916Z,31296.00
2018-08-19T11:59:19.851Z,31424.00
2018-08-19T12:00:19.773Z,30368.00
2018-08-19T12:01:19.711Z,29920.00
2018-08-19T12:02:19.647Z,29152.00
2018-08-19T12:03:19.589Z,28320.00
2018-08-19T12:04:19.523Z,28000.00
2018-08-19T12:05:19.461Z,27616.00
2018-08-19T12:06:19.398Z,27712.00
2018-08-19T12:07:19.337Z,27776.00
2018-08-19T12:08:19.275Z,28160.00
2018-08-19T12:09:19.212Z,27744.00
2018-08-19T12:10:19.162Z,27232.00
2018-08-19T12:11:19.074Z,26720.00
2018-08-19T12:12:19.012Z,26240.00
2018-08-19T12:13:18.962Z,25760.00
2018-08-19T12:14:18.892Z,25120.00
2018-08-19T12:15:18.825Z,24128.00
2018-08-19T12:16:18.762Z,23648.00
2018-08-19T12:17:18.700Z,23264.00
2018-08-19T12:18:18.638Z,23072.00
2018-08-19T12:19:18.574Z,22752.00
2018-08-19T12:20:18.512Z,22496.00
2018-08-19T12:21:18.450Z,21952.00
2018-08-19T12:22:18.388Z,21504.00